Terminal Aerodrome Forecast
Issued by NWS

Home | Current Version | Previous Version | Graphics & Text | Print | Product List | Glossary On
Versions: 1 2 3 4 5 6 7 8 9 10 11 12 13 14 15 16 17 18 19 20 21 22 23 24 25 26 27 28 29 30 31 32 33 34 35
000
FTUS43 KABR 201700 RRA
TAFATY
TAF
KATY 201741Z 2018/2118 15011KT P6SM SCT100 BKN200
     FM210000 16015KT P6SM -SHRA VCTS SCT050CB BKN080
      TEMPO 2101/2105 3SM SHRA BKN050
     FM210600 10006KT P6SM BKN150
     FM211200 10006KT 3SM BR BKN007
     FM211700 03006KT P6SM SCT015=

USA.gov is the U.S. government's official web portal to all federal, state and local government web resources and services.